Time;durP1;ratioP1;P1;durP2;ratioP2;P2;SDS_P1;SDS_P2;PMS_P1;PMS_P2;Temp;Humidity;BMP_temperature;BMP_pressure;BME280_temperature;BME280_humidity;BME280_pressure;Samples;Min_cycle;Max_cycle;Signal;HPM_P1;HPM_P2
2021/12/23 00:00:06;;;;;;;21.85;8.02;;;1.60;99.90;;;;;;4952480;29;20504;-33
2021/12/23 00:02:31;;;;;;;18.88;8.00;;;1.60;99.90;;;;;;4953136;29;20023;-41
2021/12/23 00:04:57;;;;;;;15.98;7.60;;;1.60;99.90;;;;;;4953794;29;20086;-35
2021/12/23 00:07:23;;;;;;;17.80;7.82;;;1.70;99.90;;;;;;4953862;29;20038;-30
2021/12/23 00:12:16;;;;;;;17.63;7.32;;;1.60;99.90;;;;;;4953830;28;20039;-33
2021/12/23 00:14:41;;;;;;;17.13;8.50;;;1.60;99.90;;;;;;4957149;29;20042;-31
2021/12/23 00:17:21;;;;;;;19.30;8.27;;;1.60;99.90;;;;;;4957412;29;20015;-41
2021/12/23 00:23:20;;;;;;;15.60;7.65;;;1.70;99.90;;;;;;4956013;29;20184;-32
2021/12/23 00:25:18;;;;;;;14.73;7.65;;;1.60;99.90;;;;;;4955644;29;20054;-33
2021/12/23 00:27:44;;;;;;;16.30;8.77;;;1.60;99.90;;;;;;4956199;29;20480;-32
2021/12/23 00:30:10;;;;;;;18.92;8.88;;;1.60;99.90;;;;;;4956728;29;20073;-32
2021/12/23 00:32:36;;;;;;;17.17;8.15;;;1.50;99.90;;;;;;4956702;29;20035;-36
2021/12/23 00:35:03;;;;;;;20.33;9.13;;;1.60;99.90;;;;;;4956876;29;20476;-36
2021/12/23 00:37:36;;;;;;;18.15;8.52;;;1.60;99.90;;;;;;4956820;29;20081;-35
2021/12/23 00:40:04;;;;;;;19.42;8.40;;;1.60;99.90;;;;;;4956701;29;20110;-44
2021/12/23 00:42:31;;;;;;;17.85;8.25;;;1.60;99.90;;;;;;4956690;29;20531;-34
2021/12/23 00:44:57;;;;;;;24.88;11.30;;;1.60;99.90;;;;;;4957056;29;20035;-31
2021/12/23 00:47:23;;;;;;;24.80;10.65;;;1.70;99.90;;;;;;4956068;29;20022;-31
2021/12/23 00:49:48;;;;;;;52.65;15.57;;;1.60;99.90;;;;;;4956335;29;20031;-35
2021/12/23 00:52:17;;;;;;;42.28;14.40;;;1.60;99.90;;;;;;4956462;29;20050;-32
2021/12/23 00:54:43;;;;;;;26.77;10.05;;;1.60;99.90;;;;;;4940109;29;20590;-36
2021/12/23 00:57:09;;;;;;;17.55;9.43;;;1.60;99.90;;;;;;4956401;29;20020;-31
2021/12/23 00:59:37;;;;;;;21.38;9.63;;;1.60;99.90;;;;;;4956061;29;20369;-33
2021/12/23 01:02:07;;;;;;;19.38;8.60;;;1.60;99.90;;;;;;4956366;29;20023;-40
2021/12/23 01:04:32;;;;;;;18.38;8.35;;;1.60;99.90;;;;;;4955521;29;20110;-36
2021/12/23 01:06:58;;;;;;;21.60;8.23;;;1.60;99.90;;;;;;4956378;29;20115;-35
2021/12/23 01:09:24;;;;;;;15.85;7.55;;;1.60;99.90;;;;;;4955492;29;20027;-42
2021/12/23 01:11:50;;;;;;;22.45;8.70;;;1.70;99.90;;;;;;4956623;29;20023;-32
2021/12/23 01:17:42;;;;;;;16.80;7.95;;;1.70;99.90;;;;;;4955330;29;20035;-33
2021/12/23 01:19:38;;;;;;;17.70;7.97;;;1.70;99.90;;;;;;4942684;28;20078;-33
2021/12/23 01:22:04;;;;;;;17.30;8.10;;;1.80;99.90;;;;;;4948888;29;20118;-34
2021/12/23 01:24:33;;;;;;;19.88;8.02;;;1.80;99.90;;;;;;4949027;28;20106;-35
2021/12/23 01:26:59;;;;;;;18.38;8.05;;;1.80;99.90;;;;;;4947207;29;20027;-36
2021/12/23 01:29:25;;;;;;;16.65;7.90;;;1.70;99.90;;;;;;4949352;29;20042;-32
2021/12/23 01:31:50;;;;;;;17.23;8.02;;;1.70;99.90;;;;;;4947869;29;20044;-36
2021/12/23 01:34:16;;;;;;;18.75;8.10;;;1.70;99.90;;;;;;4949451;28;20086;-30
2021/12/23 01:36:41;;;;;;;19.48;8.38;;;1.70;99.90;;;;;;4949485;29;20027;-36
2021/12/23 01:39:07;;;;;;;23.45;9.15;;;1.70;99.90;;;;;;4953151;29;20065;-31
2021/12/23 01:41:33;;;;;;;29.02;8.98;;;1.70;99.90;;;;;;4953344;29;20466;-33
2021/12/23 01:43:58;;;;;;;19.50;8.13;;;1.70;99.90;;;;;;4950853;28;20027;-33
2021/12/23 01:46:24;;;;;;;17.08;8.15;;;1.70;99.90;;;;;;4947370;28;20082;-38
2021/12/23 01:48:51;;;;;;;22.55;9.07;;;1.60;99.90;;;;;;4948746;28;20039;-32
2021/12/23 01:51:17;;;;;;;19.42;8.35;;;1.60;99.90;;;;;;4949041;28;20023;-34
2021/12/23 01:53:43;;;;;;;21.17;9.30;;;1.50;99.90;;;;;;4948000;29;20035;-30
2021/12/23 01:56:09;;;;;;;17.17;8.13;;;1.40;99.90;;;;;;4953201;29;20113;-33
2021/12/23 01:58:39;;;;;;;15.82;7.55;;;1.40;99.90;;;;;;4952786;29;20114;-34
2021/12/23 02:01:08;;;;;;;19.48;8.52;;;1.30;99.90;;;;;;4952643;29;20035;-37
2021/12/23 02:03:34;;;;;;;20.90;8.82;;;1.30;99.90;;;;;;4932612;29;20039;-37
2021/12/23 02:06:00;;;;;;;19.50;8.07;;;1.20;99.90;;;;;;4954263;29;20480;-31
2021/12/23 02:08:26;;;;;;;18.70;8.48;;;1.20;99.90;;;;;;4953146;29;20027;-37
2021/12/23 02:10:55;;;;;;;21.63;8.32;;;1.20;99.90;;;;;;4955147;29;20115;-31
2021/12/23 02:13:21;;;;;;;23.60;9.50;;;1.20;99.90;;;;;;4954905;29;20087;-35
2021/12/23 02:15:47;;;;;;;18.50;8.18;;;1.10;99.90;;;;;;4954614;29;20032;-36
2021/12/23 02:18:13;;;;;;;18.17;9.40;;;1.10;99.90;;;;;;4954426;29;20027;-34
2021/12/23 02:20:39;;;;;;;17.95;8.32;;;1.10;99.90;;;;;;4954118;29;20034;-34
2021/12/23 02:23:08;;;;;;;20.90;8.35;;;1.00;99.90;;;;;;4953494;29;20034;-31
2021/12/23 02:25:34;;;;;;;25.45;9.35;;;1.10;99.90;;;;;;4953686;29;20031;-34
2021/12/23 02:28:04;;;;;;;20.95;8.68;;;1.10;99.90;;;;;;4952850;29;20043;-31
2021/12/23 02:30:31;;;;;;;21.23;8.77;;;1.00;99.90;;;;;;4954194;29;20078;-31
2021/12/23 02:32:57;;;;;;;18.13;8.90;;;1.00;99.90;;;;;;4953255;28;20023;-35
2021/12/23 02:35:24;;;;;;;21.83;8.30;;;1.00;99.90;;;;;;4953454;28;20027;-34
2021/12/23 02:37:50;;;;;;;19.92;8.88;;;1.00;99.90;;;;;;4953899;29;20475;-34
2021/12/23 02:40:50;;;;;;;20.45;8.70;;;1.00;99.90;;;;;;4955036;29;20154;-33
2021/12/23 02:43:19;;;;;;;19.83;9.55;;;0.90;99.90;;;;;;4950699;29;20504;-33
2021/12/23 02:45:47;;;;;;;21.48;9.43;;;0.90;99.90;;;;;;4945388;29;20051;-31
2021/12/23 02:48:13;;;;;;;;;;;0.90;99.90;;;;;;4954699;29;20027;-36
2021/12/23 02:50:40;;;;;;;17.67;8.48;;;0.90;99.90;;;;;;4954537;29;20366;-30
2021/12/23 02:53:06;;;;;;;21.38;8.50;;;0.90;99.90;;;;;;4954371;29;20027;-32
2021/12/23 02:55:32;;;;;;;18.52;9.05;;;0.90;99.90;;;;;;4954373;29;20023;-31
2021/12/23 02:57:57;;;;;;;22.08;9.18;;;0.90;99.90;;;;;;4954308;29;20038;-30
2021/12/23 03:00:23;;;;;;;22.88;9.00;;;1.00;99.90;;;;;;4954251;29;20488;-33
2021/12/23 03:02:49;;;;;;;19.50;9.80;;;0.90;99.90;;;;;;4954172;29;20039;-38
2021/12/23 03:05:15;;;;;;;21.50;9.02;;;0.90;99.90;;;;;;4954413;29;20380;-33
2021/12/23 03:07:40;;;;;;;19.33;8.77;;;0.90;99.90;;;;;;4954204;29;20027;-33
2021/12/23 03:10:08;;;;;;;20.88;8.20;;;0.90;99.90;;;;;;4954365;29;20528;-37
2021/12/23 03:12:35;;;;;;;17.23;8.35;;;0.90;99.90;;;;;;4954053;29;20434;-33
2021/12/23 03:15:01;;;;;;;22.00;9.13;;;0.80;99.90;;;;;;4953914;29;20102;-33
2021/12/23 03:17:27;;;;;;;16.92;8.55;;;0.80;99.90;;;;;;4952414;29;20465;-30
2021/12/23 03:19:52;;;;;;;26.42;9.35;;;0.80;99.90;;;;;;4954045;29;20027;-33
2021/12/23 03:22:18;;;;;;;23.40;8.95;;;0.80;99.90;;;;;;4953626;28;20498;-33
2021/12/23 03:24:44;;;;;;;18.05;7.43;;;0.80;99.90;;;;;;4950256;29;20031;-32
2021/12/23 03:27:10;;;;;;;19.08;8.50;;;0.90;99.90;;;;;;4953072;29;20027;-34
2021/12/23 03:29:36;;;;;;;21.30;9.00;;;0.90;99.90;;;;;;4954180;29;20035;-31
2021/12/23 03:32:02;;;;;;;20.63;9.00;;;1.00;99.90;;;;;;4951480;29;20035;-30
2021/12/23 03:34:28;;;;;;;19.17;8.98;;;1.00;99.90;;;;;;4952769;29;20090;-29
2021/12/23 03:36:54;;;;;;;22.85;8.60;;;1.10;99.90;;;;;;4951195;29;20054;-35
2021/12/23 03:39:19;;;;;;;19.13;8.45;;;1.10;99.90;;;;;;4952703;29;20036;-32
2021/12/23 03:41:46;;;;;;;18.15;8.88;;;1.10;99.90;;;;;;4954222;29;20488;-31
2021/12/23 03:44:12;;;;;;;28.63;11.70;;;1.10;99.90;;;;;;4951299;29;20492;-29
2021/12/23 03:46:38;;;;;;;26.30;12.10;;;1.10;99.90;;;;;;4951502;28;20284;-36
2021/12/23 03:49:08;;;;;;;20.70;9.57;;;1.10;99.90;;;;;;4957745;29;20023;-49
2021/12/23 03:51:34;;;;;;;18.60;8.57;;;1.00;99.90;;;;;;4951672;29;20476;-32
2021/12/23 03:54:00;;;;;;;17.83;9.07;;;1.00;99.90;;;;;;4955801;29;20028;-42
2021/12/23 03:56:26;;;;;;;22.83;9.90;;;1.00;99.90;;;;;;4956896;29;20078;-30
2021/12/23 03:58:54;;;;;;;24.25;10.50;;;1.00;99.90;;;;;;4955864;29;20031;-32
2021/12/23 04:01:21;;;;;;;23.00;11.13;;;1.00;99.90;;;;;;4948354;29;20519;-29
2021/12/23 04:03:48;;;;;;;22.60;10.20;;;1.00;99.90;;;;;;4953574;29;20031;-33
2021/12/23 04:06:14;;;;;;;24.67;10.73;;;1.00;99.90;;;;;;4964805;28;20058;-40
2021/12/23 04:08:39;;;;;;;18.23;9.55;;;1.00;99.90;;;;;;4951985;29;20043;-35
2021/12/23 04:11:05;;;;;;;25.95;10.77;;;1.00;99.90;;;;;;4955851;29;20122;-30
2021/12/23 04:13:31;;;;;;;23.02;10.00;;;1.00;99.90;;;;;;4956181;29;20027;-32
2021/12/23 04:15:56;;;;;;;24.30;10.20;;;1.00;99.90;;;;;;4955449;29;20538;-35
2021/12/23 04:18:22;;;;;;;20.98;9.68;;;1.00;99.90;;;;;;4956511;29;20048;-30
2021/12/23 04:20:53;;;;;;;26.70;9.82;;;1.00;99.90;;;;;;4957377;29;20486;-30
2021/12/23 04:23:28;;;;;;;24.27;10.65;;;1.00;99.90;;;;;;4956868;29;20480;-32
2021/12/23 04:25:55;;;;;;;25.65;10.77;;;1.00;99.90;;;;;;4956921;29;20034;-32
2021/12/23 04:28:22;;;;;;;29.17;10.77;;;1.00;99.90;;;;;;4937131;29;20023;-34
2021/12/23 04:30:48;;;;;;;23.50;10.80;;;0.90;99.90;;;;;;4956212;29;20407;-34
2021/12/23 04:33:13;;;;;;;30.27;11.20;;;0.80;99.90;;;;;;4956716;29;20023;-30
2021/12/23 04:35:39;;;;;;;24.25;10.65;;;0.80;99.90;;;;;;4956291;29;20107;-32
2021/12/23 04:38:05;;;;;;;33.95;13.13;;;0.80;99.90;;;;;;4956560;29;20024;-33
2021/12/23 04:40:34;;;;;;;30.25;13.40;;;0.80;99.90;;;;;;4955955;29;20369;-33
2021/12/23 04:43:03;;;;;;;38.58;12.82;;;0.80;99.90;;;;;;4956563;29;20031;-58
2021/12/23 04:45:29;;;;;;;29.88;12.85;;;0.80;99.90;;;;;;4955924;29;20078;-33
2021/12/23 04:47:55;;;;;;;33.97;12.98;;;0.70;99.90;;;;;;4955582;29;20067;-33
2021/12/23 04:50:21;;;;;;;36.47;13.52;;;0.70;99.90;;;;;;4956455;29;20038;-33
2021/12/23 04:52:46;;;;;;;38.00;14.02;;;0.70;99.90;;;;;;4956245;29;20038;-31
2021/12/23 04:55:14;;;;;;;39.60;15.00;;;0.70;99.90;;;;;;4956336;29;20492;-34
2021/12/23 04:57:40;;;;;;;44.90;14.35;;;0.70;99.90;;;;;;4956615;29;20023;-31
2021/12/23 05:00:15;;;;;;;40.53;14.52;;;0.80;99.90;;;;;;4955558;28;20506;-32
2021/12/23 05:02:41;;;;;;;38.10;15.50;;;0.80;99.90;;;;;;4956365;29;20042;-36
2021/12/23 05:05:07;;;;;;;49.38;16.02;;;0.80;99.90;;;;;;4956371;29;20024;-32
2021/12/23 05:07:33;;;;;;;50.85;17.35;;;0.80;99.90;;;;;;4938068;29;20540;-33
2021/12/23 05:09:59;;;;;;;52.13;17.65;;;0.80;99.90;;;;;;4954811;29;20110;-33
2021/12/23 05:12:24;;;;;;;47.40;16.17;;;0.80;99.90;;;;;;4956763;29;20027;-30
2021/12/23 05:14:50;;;;;;;49.03;17.35;;;0.90;99.90;;;;;;4956325;29;20028;-30
2021/12/23 05:17:16;;;;;;;43.42;16.25;;;0.90;99.90;;;;;;4956016;29;20023;-38
2021/12/23 05:19:42;;;;;;;47.92;15.77;;;0.90;99.90;;;;;;4956302;29;20178;-33
2021/12/23 05:22:07;;;;;;;44.00;16.67;;;0.90;99.90;;;;;;4956092;29;20031;-32
2021/12/23 05:24:33;;;;;;;52.28;16.38;;;0.80;99.90;;;;;;4956356;29;20027;-35
2021/12/23 05:26:59;;;;;;;51.70;17.67;;;0.80;99.90;;;;;;4955883;29;20027;-35
2021/12/23 05:29:25;;;;;;;49.10;15.90;;;0.80;99.90;;;;;;4956173;29;20027;-33
2021/12/23 05:31:51;;;;;;;56.72;18.70;;;0.90;99.90;;;;;;4955950;29;20098;-44
2021/12/23 05:34:16;;;;;;;40.65;16.63;;;0.90;99.90;;;;;;4956113;29;20047;-32
2021/12/23 05:36:42;;;;;;;50.72;17.98;;;0.90;99.90;;;;;;4955837;29;20027;-35
2021/12/23 05:39:09;;;;;;;54.28;17.10;;;0.80;99.90;;;;;;4955569;29;20023;-33
2021/12/23 05:41:35;;;;;;;53.78;17.90;;;0.90;99.90;;;;;;4955743;29;20496;-31
2021/12/23 05:44:01;;;;;;;48.35;17.35;;;0.80;99.90;;;;;;4955299;29;20031;-31
2021/12/23 05:46:27;;;;;;;54.13;17.60;;;0.80;99.90;;;;;;4955444;29;20062;-33
2021/12/23 05:48:53;;;;;;;45.97;15.82;;;0.80;99.90;;;;;;4955424;29;20445;-32
2021/12/23 05:51:19;;;;;;;50.78;18.17;;;0.80;99.90;;;;;;4955485;29;20118;-29
2021/12/23 05:53:44;;;;;;;46.75;18.05;;;0.80;99.90;;;;;;4955631;29;20031;-36
2021/12/23 05:56:10;;;;;;;49.53;16.92;;;0.90;99.90;;;;;;4954962;29;20019;-34
2021/12/23 05:58:36;;;;;;;46.70;16.33;;;0.90;99.90;;;;;;4955749;29;20028;-30
2021/12/23 06:01:03;;;;;;;57.90;17.60;;;0.90;99.90;;;;;;4953339;29;20090;-33
2021/12/23 06:03:29;;;;;;;48.78;17.48;;;0.90;99.90;;;;;;4938920;29;20031;-34
2021/12/23 06:05:54;;;;;;;51.28;17.88;;;0.90;99.90;;;;;;4946910;29;20476;-36
2021/12/23 06:08:20;;;;;;;48.03;16.90;;;0.90;99.90;;;;;;4955076;29;20545;-36
2021/12/23 06:10:46;;;;;;;46.38;16.92;;;0.80;99.90;;;;;;4953896;28;20064;-32
2021/12/23 06:13:11;;;;;;;41.83;16.90;;;1.00;99.90;;;;;;4955484;29;20023;-34
2021/12/23 06:15:37;;;;;;;48.03;18.00;;;1.00;99.90;;;;;;4954645;29;20046;-36
2021/12/23 06:18:03;;;;;;;44.78;16.98;;;1.00;99.90;;;;;;4954535;29;20492;-32
2021/12/23 06:20:29;;;;;;;44.05;17.48;;;0.90;99.90;;;;;;4954450;29;20050;-31
2021/12/23 06:22:55;;;;;;;40.67;16.35;;;0.90;99.90;;;;;;4955119;29;20066;-33
2021/12/23 06:25:21;;;;;;;45.80;16.90;;;0.90;99.90;;;;;;4954960;29;20137;-35
2021/12/23 06:27:46;;;;;;;47.22;17.23;;;0.90;99.90;;;;;;4953858;29;20114;-30
2021/12/23 06:30:21;;;;;;;50.80;16.58;;;0.90;99.90;;;;;;4955208;29;20027;-30
2021/12/23 06:32:52;;;;;;;47.97;15.70;;;0.90;99.90;;;;;;4954686;29;20027;-30
2021/12/23 06:35:19;;;;;;;45.92;16.50;;;1.00;99.90;;;;;;4954368;29;20481;-30
2021/12/23 06:37:45;;;;;;;43.43;16.07;;;1.00;99.90;;;;;;4935845;29;20038;-33
2021/12/23 06:40:11;;;;;;;54.35;17.02;;;1.10;99.90;;;;;;4954580;29;20023;-33
2021/12/23 06:42:38;;;;;;;47.42;16.65;;;1.10;99.90;;;;;;4954762;29;20028;-31
2021/12/23 06:45:04;;;;;;;49.63;17.15;;;1.10;99.90;;;;;;4954308;29;20099;-36
2021/12/23 06:47:30;;;;;;;47.78;17.17;;;1.10;99.90;;;;;;4954779;29;20110;-30
2021/12/23 06:49:55;;;;;;;52.95;17.75;;;1.10;99.90;;;;;;4954637;29;20520;-33
2021/12/23 06:52:21;;;;;;;47.90;17.42;;;1.10;99.90;;;;;;4954580;29;20110;-31
2021/12/23 06:54:52;;;;;;;43.35;16.20;;;1.10;99.90;;;;;;4953914;29;20039;-32
2021/12/23 06:57:18;;;;;;;49.90;17.13;;;1.10;99.90;;;;;;4954209;29;20090;-31
2021/12/23 06:59:43;;;;;;;46.15;15.60;;;1.10;99.90;;;;;;4953922;29;20023;-34
2021/12/23 07:02:09;;;;;;;45.05;16.90;;;1.10;99.90;;;;;;4954251;29;20369;-36
2021/12/23 07:04:36;;;;;;;46.38;16.67;;;1.00;99.90;;;;;;4954412;29;20039;-32
2021/12/23 07:07:19;;;;;;;47.35;15.93;;;1.10;99.90;;;;;;4954449;29;20113;-33
2021/12/23 07:09:45;;;;;;;51.85;16.55;;;1.10;99.90;;;;;;4954453;29;20050;-34
2021/12/23 07:12:12;;;;;;;48.10;16.10;;;1.20;99.90;;;;;;4953548;29;20373;-33
2021/12/23 07:14:39;;;;;;;44.80;16.25;;;1.20;99.90;;;;;;4954272;29;20019;-35
2021/12/23 07:17:07;;;;;;;50.90;17.02;;;1.10;99.90;;;;;;4954244;29;20030;-36
2021/12/23 07:19:33;;;;;;;47.13;16.05;;;1.20;99.90;;;;;;4954263;29;20019;-31
2021/12/23 07:21:58;;;;;;;42.83;15.63;;;1.20;99.90;;;;;;4954314;28;20506;-40
2021/12/23 07:24:24;;;;;;;49.53;15.70;;;1.20;99.90;;;;;;4958019;29;20031;-32
2021/12/23 07:26:50;;;;;;;49.28;16.60;;;1.20;99.90;;;;;;4957908;29;20110;-33
2021/12/23 07:29:15;;;;;;;44.22;14.95;;;1.30;99.90;;;;;;4957892;29;20034;-36
2021/12/23 07:31:41;;;;;;;38.60;15.15;;;1.30;99.90;;;;;;4957372;29;20086;-31
2021/12/23 07:34:07;;;;;;;42.45;16.10;;;1.30;99.90;;;;;;4958038;29;20023;-31
2021/12/23 07:36:34;;;;;;;44.47;16.15;;;1.40;99.90;;;;;;4954004;29;20059;-34
2021/12/23 07:38:59;;;;;;;51.47;16.42;;;1.50;99.90;;;;;;4957598;29;20020;-30
2021/12/23 07:41:29;;;;;;;41.65;14.93;;;1.50;99.90;;;;;;4957623;29;20503;-36
2021/12/23 07:43:58;;;;;;;44.38;15.07;;;1.50;99.90;;;;;;4940175;29;20499;-34
2021/12/23 07:46:26;;;;;;;51.33;16.38;;;1.40;99.90;;;;;;4957596;29;20043;-34
2021/12/23 07:48:51;;;;;;;49.28;16.50;;;1.30;99.90;;;;;;4957370;29;20050;-34
2021/12/23 07:51:17;;;;;;;50.13;16.95;;;1.30;99.90;;;;;;4951418;29;20278;-35
2021/12/23 07:53:43;;;;;;;45.05;18.00;;;1.30;99.90;;;;;;4957666;29;20031;-29
2021/12/23 07:56:09;;;;;;;44.55;16.42;;;1.40;99.90;;;;;;4957257;29;20026;-34
2021/12/23 07:58:34;;;;;;;49.83;16.63;;;1.30;99.90;;;;;;4953225;29;20028;-32
2021/12/23 08:01:00;;;;;;;47.60;17.15;;;1.30;99.90;;;;;;4956795;29;20031;-49
2021/12/23 08:03:26;;;;;;;46.25;17.60;;;1.30;99.90;;;;;;4957004;29;20031;-34
2021/12/23 08:05:52;;;;;;;48.50;16.35;;;1.30;99.90;;;;;;4957371;29;20041;-30
2021/12/23 08:08:19;;;;;;;55.05;16.48;;;1.30;99.90;;;;;;4957289;29;20606;-34
2021/12/23 08:10:44;;;;;;;38.70;15.15;;;1.30;99.90;;;;;;4956791;29;20031;-30
2021/12/23 08:13:13;;;;;;;52.40;16.90;;;1.30;99.90;;;;;;4957317;29;20369;-34
2021/12/23 08:15:39;;;;;;;45.50;15.55;;;1.30;99.90;;;;;;4956983;29;20023;-34
2021/12/23 08:18:04;;;;;;;45.80;15.88;;;1.30;99.90;;;;;;4957524;29;20180;-30
2021/12/23 08:20:30;;;;;;;40.88;15.55;;;1.40;99.90;;;;;;4957087;29;20055;-34
2021/12/23 08:22:56;;;;;;;46.50;16.05;;;1.50;99.90;;;;;;4956432;29;20057;-31
2021/12/23 08:25:23;;;;;;;44.22;15.65;;;1.40;99.90;;;;;;4956994;29;20023;-33
2021/12/23 08:27:49;;;;;;;46.00;16.02;;;1.50;99.90;;;;;;4956523;29;20035;-33
2021/12/23 08:30:17;;;;;;;43.28;14.20;;;1.60;99.90;;;;;;4956357;29;20268;-37
2021/12/23 08:32:43;;;;;;;48.15;16.00;;;1.50;99.90;;;;;;4955807;29;20027;-35
2021/12/23 08:35:10;;;;;;;38.05;15.55;;;1.50;99.90;;;;;;4955847;29;20075;-35
2021/12/23 08:37:37;;;;;;;43.78;15.85;;;1.50;99.90;;;;;;4956452;29;20030;-31
2021/12/23 08:40:05;;;;;;;42.80;14.90;;;1.50;99.90;;;;;;4956469;29;20107;-40
2021/12/23 08:42:31;;;;;;;43.27;15.53;;;1.50;99.90;;;;;;4956779;29;20081;-33
2021/12/23 08:44:56;;;;;;;38.97;15.25;;;1.50;99.90;;;;;;4956420;29;20423;-35
2021/12/23 08:47:22;;;;;;;45.97;16.50;;;1.50;99.90;;;;;;4956616;29;20027;-41
2021/12/23 08:49:47;;;;;;;42.25;15.32;;;1.60;99.90;;;;;;4956669;29;20130;-32
2021/12/23 08:52:13;;;;;;;46.03;16.38;;;1.60;99.90;;;;;;4954862;29;20193;-35
2021/12/23 08:54:42;;;;;;;48.95;14.80;;;1.60;99.90;;;;;;4955422;29;20026;-33
2021/12/23 08:57:07;;;;;;;;;;;1.80;99.90;;;;;;4954005;29;20028;-32
2021/12/23 08:59:33;;;;;;;37.97;14.57;;;1.80;99.90;;;;;;4956370;29;19907;-31
2021/12/23 09:01:59;;;;;;;44.83;15.20;;;1.80;99.90;;;;;;4956486;29;20034;-31
2021/12/23 09:04:25;;;;;;;44.53;16.52;;;1.90;99.90;;;;;;4955497;29;20031;-34
2021/12/23 09:06:50;;;;;;;42.30;14.00;;;1.90;99.90;;;;;;4956513;29;20110;-33
2021/12/23 09:09:17;;;;;;;37.78;13.95;;;1.90;99.90;;;;;;4956298;29;20535;-37
2021/12/23 09:11:43;;;;;;;38.13;13.93;;;2.00;99.90;;;;;;4954731;29;20465;-35
2021/12/23 09:14:09;;;;;;;42.50;15.60;;;2.00;99.90;;;;;;4955489;29;20024;-34
2021/12/23 09:16:35;;;;;;;44.30;15.50;;;2.00;99.90;;;;;;4956081;29;20039;-34
2021/12/23 09:19:02;;;;;;;39.97;15.00;;;2.10;99.90;;;;;;4956068;29;20412;-39
2021/12/23 09:21:28;;;;;;;46.05;15.70;;;2.10;99.90;;;;;;4955451;29;20110;-41
2021/12/23 09:23:54;;;;;;;37.50;15.30;;;2.10;99.90;;;;;;4955413;29;20090;-34
2021/12/23 09:26:20;;;;;;;47.35;15.57;;;2.10;99.90;;;;;;4956155;29;20031;-35
2021/12/23 09:29:07;;;;;;;41.13;14.55;;;2.10;99.90;;;;;;4956492;29;20460;-31
2021/12/23 09:34:17;;;;;;;43.70;14.57;;;2.10;99.90;;;;;;4954864;29;20114;-32
2021/12/23 09:36:42;;;;;;;41.70;15.52;;;2.10;99.90;;;;;;4955332;29;20043;-44
2021/12/23 09:39:11;;;;;;;41.58;14.75;;;2.10;99.90;;;;;;4955339;29;20023;-38
2021/12/23 09:41:39;;;;;;;43.40;14.88;;;2.20;99.90;;;;;;4955006;29;20551;-34
2021/12/23 09:44:07;;;;;;;30.20;10.85;;;2.20;99.90;;;;;;4955883;29;20058;-30
2021/12/23 09:46:34;;;;;;;41.55;15.25;;;2.20;99.90;;;;;;4955595;28;20043;-32
2021/12/23 09:49:01;;;;;;;41.97;15.32;;;2.20;99.90;;;;;;4955504;29;20042;-41
2021/12/23 09:51:29;;;;;;;52.13;15.35;;;2.30;99.90;;;;;;4955012;29;20039;-30
2021/12/23 09:53:58;;;;;;;45.45;15.23;;;2.30;99.90;;;;;;4948893;29;20042;-36
2021/12/23 09:56:25;;;;;;;41.08;14.65;;;2.40;99.90;;;;;;4936821;29;20048;-37
2021/12/23 09:58:51;;;;;;;37.22;13.18;;;2.50;99.90;;;;;;4954183;29;20027;-37
2021/12/23 10:01:17;;;;;;;40.10;13.63;;;2.50;99.90;;;;;;4937017;29;20028;-35
2021/12/23 10:03:43;;;;;;;43.08;14.98;;;2.50;99.90;;;;;;4944282;29;20035;-37
2021/12/23 10:06:09;;;;;;;45.95;15.88;;;2.40;99.90;;;;;;4955549;29;20031;-32
2021/12/23 10:08:36;;;;;;;45.47;16.17;;;2.40;99.90;;;;;;4955723;29;20035;-35
2021/12/23 10:11:21;;;;;;;37.45;14.27;;;2.40;99.90;;;;;;4954973;29;20050;-35
2021/12/23 10:33:08;;;;;;;42.88;14.40;;;2.60;99.90;;;;;;4943925;29;20046;-34
2021/12/23 10:38:43;;;;;;;45.67;14.63;;;2.60;99.90;;;;;;4915929;29;20042;-32
2021/12/23 10:41:18;;;;;;;43.28;14.35;;;2.60;99.90;;;;;;4945690;29;20487;-33
2021/12/23 10:44:03;;;;;;;38.28;14.10;;;2.60;99.90;;;;;;4954378;29;20027;-32
2021/12/23 10:46:34;;;;;;;50.90;14.52;;;2.60;99.90;;;;;;4954842;29;20114;-33
2021/12/23 10:49:30;;;;;;;41.25;14.30;;;2.50;99.90;;;;;;4954340;29;20552;-38
2021/12/23 10:52:17;;;;;;;40.67;13.30;;;2.60;99.90;;;;;;4954084;29;20408;-32
2021/12/23 11:00:25;;;;;;;39.33;13.25;;;2.70;99.90;;;;;;4954896;29;20447;-34
2021/12/23 11:03:02;;;;;;;40.75;12.75;;;2.80;99.90;;;;;;4954179;29;20019;-36
2021/12/23 11:05:33;;;;;;;45.70;14.85;;;2.90;99.90;;;;;;4952087;29;20532;-33
2021/12/23 11:10:57;;;;;;;42.28;13.07;;;2.90;99.90;;;;;;4952701;29;20480;-34
2021/12/23 11:41:04;;;;;;;32.83;13.20;;;3.30;99.90;;;;;;4953959;29;20039;-36
2021/12/23 11:46:22;;;;;;;38.83;15.15;;;3.40;99.90;;;;;;4952944;29;20050;-34
2021/12/23 11:48:52;;;;;;;45.28;14.15;;;3.30;99.90;;;;;;4953023;29;20124;-34
2021/12/23 11:51:28;;;;;;;35.67;13.23;;;3.40;99.90;;;;;;4952616;29;20564;-35
2021/12/23 11:53:54;;;;;;;38.30;16.23;;;3.40;99.90;;;;;;4953529;29;20062;-34
2021/12/23 11:56:21;;;;;;;44.88;15.02;;;3.50;99.90;;;;;;4953696;29;20461;-31
2021/12/23 11:58:49;;;;;;;44.20;15.43;;;3.60;99.90;;;;;;4953733;29;20523;-32
2021/12/23 12:01:21;;;;;;;36.50;13.93;;;3.70;99.90;;;;;;4952975;29;20042;-37
2021/12/23 12:04:08;;;;;;;41.08;14.80;;;3.70;99.90;;;;;;4950465;29;20031;-35
2021/12/23 12:06:40;;;;;;;32.55;12.45;;;3.70;99.90;;;;;;4953342;29;20526;-35
2021/12/23 12:09:22;;;;;;;41.80;14.07;;;3.70;99.90;;;;;;4952330;28;20472;-35
2021/12/23 12:12:18;;;;;;;36.47;14.60;;;3.80;99.90;;;;;;4935150;29;20071;-31
2021/12/23 12:14:46;;;;;;;40.60;14.90;;;3.90;99.90;;;;;;4955919;29;20481;-35
2021/12/23 12:17:26;;;;;;;40.28;14.77;;;3.90;99.90;;;;;;4955914;29;20023;-37
2021/12/23 12:19:58;;;;;;;46.90;15.50;;;3.90;99.90;;;;;;4956103;29;20035;-32
2021/12/23 12:22:54;;;;;;;37.22;14.68;;;3.90;99.90;;;;;;4956075;29;20031;-35
2021/12/23 12:25:41;;;;;;;34.65;14.07;;;3.90;99.90;;;;;;4951469;29;20382;-36
2021/12/23 12:28:06;;;;;;;38.10;14.48;;;4.10;99.90;;;;;;4939340;29;20460;-37
2021/12/23 12:30:35;;;;;;;36.00;14.15;;;4.10;99.90;;;;;;4956346;29;20035;-34
2021/12/23 12:33:05;;;;;;;38.35;15.25;;;4.00;99.90;;;;;;4956492;29;20035;-32
2021/12/23 12:35:31;;;;;;;39.80;14.02;;;4.10;99.90;;;;;;4956283;29;20082;-40
2021/12/23 12:38:12;;;;;;;35.90;13.73;;;4.10;99.90;;;;;;4956353;29;20106;-35
2021/12/23 12:40:59;;;;;;;40.55;15.00;;;4.20;99.90;;;;;;4954893;29;20055;-39
2021/12/23 12:43:33;;;;;;;46.42;13.30;;;4.30;99.90;;;;;;4955288;29;20035;-31
2021/12/23 12:45:59;;;;;;;37.97;14.50;;;4.30;99.90;;;;;;4956748;29;20492;-38
2021/12/23 12:49:01;;;;;;;40.63;14.48;;;4.30;99.90;;;;;;4955633;29;20035;-31
2021/12/23 12:51:39;;;;;;;41.20;13.90;;;4.40;99.90;;;;;;4955871;29;20934;-38
2021/12/23 12:54:16;;;;;;;43.75;13.52;;;4.40;99.90;;;;;;4955289;29;20031;-31
2021/12/23 12:56:51;;;;;;;38.53;14.15;;;4.40;99.90;;;;;;4955075;29;20472;-33
2021/12/23 12:59:22;;;;;;;40.63;14.77;;;4.40;99.90;;;;;;4955655;29;20026;-34
2021/12/23 13:01:51;;;;;;;33.53;13.52;;;4.40;99.90;;;;;;4954602;29;20489;-35
2021/12/23 13:04:43;;;;;;;43.53;14.65;;;4.40;99.90;;;;;;4955912;29;20535;-37
2021/12/23 13:07:28;;;;;;;34.50;13.93;;;4.50;99.90;;;;;;4956013;29;20361;-45
2021/12/23 13:10:05;;;;;;;45.72;14.73;;;4.60;99.90;;;;;;4954279;29;20031;-33
2021/12/23 13:12:48;;;;;;;37.72;14.40;;;4.70;99.90;;;;;;4956092;29;20403;-38
2021/12/23 13:15:35;;;;;;;36.58;14.38;;;4.70;99.90;;;;;;4956295;29;20051;-34
2021/12/23 13:18:10;;;;;;;35.70;13.43;;;4.80;99.90;;;;;;4954939;29;20399;-31
2021/12/23 13:20:41;;;;;;;39.75;14.05;;;4.90;99.90;;;;;;4955089;28;20279;-32
2021/12/23 13:23:36;;;;;;;43.15;13.55;;;4.90;99.90;;;;;;4955695;29;20118;-32
2021/12/23 13:26:17;;;;;;;37.70;12.95;;;4.90;99.90;;;;;;4946418;29;20043;-34
2021/12/23 13:28:55;;;;;;;45.42;14.25;;;4.90;99.90;;;;;;4951760;29;20049;-35
2021/12/23 13:31:28;;;;;;;36.33;13.18;;;4.90;99.90;;;;;;4951466;29;20023;-34
2021/12/23 13:33:59;;;;;;;37.97;14.13;;;4.90;99.90;;;;;;4955715;29;20046;-34
2021/12/23 13:36:28;;;;;;;40.80;15.40;;;4.90;99.90;;;;;;4954493;29;20027;-38
2021/12/23 13:39:03;;;;;;;35.50;15.57;;;4.90;99.90;;;;;;4955257;29;20023;-33
2021/12/23 13:41:36;;;;;;;38.10;14.50;;;4.90;99.90;;;;;;4955770;29;20058;-31
2021/12/23 13:44:22;;;;;;;36.92;14.30;;;4.90;99.90;;;;;;4955941;29;20358;-31
2021/12/23 13:46:57;;;;;;;41.28;15.27;;;4.90;99.90;;;;;;4916014;29;20461;-37
2021/12/23 13:49:32;;;;;;;41.20;14.10;;;4.90;99.90;;;;;;4916099;29;20473;-34
2021/12/23 13:51:58;;;;;;;36.63;14.48;;;4.90;99.90;;;;;;4917215;29;20470;-33
2021/12/23 13:54:30;;;;;;;30.48;12.88;;;5.00;99.90;;;;;;4916929;29;20024;-35
2021/12/23 13:56:56;;;;;;;38.80;14.02;;;5.00;99.90;;;;;;4917024;29;20028;-34
2021/12/23 13:59:25;;;;;;;38.67;14.40;;;4.90;99.90;;;;;;4916977;29;20051;-32